createdAt,value
2019-02-21T00:02:22.255Z,6.80
2019-02-21T00:05:10.476Z,6.80
2019-02-21T00:07:58.689Z,6.80
2019-02-21T00:10:46.884Z,6.90
2019-02-21T00:13:35.108Z,6.90
2019-02-21T00:16:23.310Z,6.90
2019-02-21T00:19:11.560Z,6.90
2019-02-21T00:21:59.799Z,6.90
2019-02-21T00:24:29.169Z,7.00
2019-02-21T00:26:58.264Z,7.10
2019-02-21T00:29:47.296Z,7.00
2019-02-21T00:32:35.516Z,6.80
2019-02-21T00:35:23.785Z,6.60
2019-02-21T00:38:11.980Z,6.60
2019-02-21T00:41:00.273Z,6.50
2019-02-21T00:43:48.481Z,6.40
2019-02-21T00:46:36.690Z,6.40
2019-02-21T00:49:24.972Z,6.30
2019-02-21T00:52:13.427Z,6.10
2019-02-21T00:55:01.651Z,6.10
2019-02-21T00:57:49.860Z,6.20
2019-02-21T01:00:46.058Z,6.10
2019-02-21T01:03:28.366Z,6.20
2019-02-21T01:06:16.579Z,6.20
2019-02-21T01:12:13.106Z,6.10
2019-02-21T01:14:54.295Z,6.10
2019-02-21T01:20:18.159Z,6.20
2019-02-21T01:25:40.904Z,6.00
2019-02-21T01:28:10.024Z,6.00
2019-02-21T01:30:58.578Z,6.00
2019-02-21T01:33:28.217Z,6.00
2019-02-21T01:36:16.442Z,5.90
2019-02-21T01:39:05.521Z,5.90
2019-02-21T01:41:53.854Z,5.90
2019-02-21T01:44:42.375Z,5.80
2019-02-21T01:47:30.556Z,5.70
2019-02-21T01:50:18.782Z,5.70
2019-02-21T01:53:07.335Z,5.60
2019-02-21T01:55:50.955Z,5.70
2019-02-21T02:01:14.613Z,5.70
2019-02-21T02:03:55.478Z,5.80
2019-02-21T02:06:35.885Z,5.80
2019-02-21T02:09:16.569Z,5.80
2019-02-21T02:14:39.523Z,5.70
2019-02-21T02:17:19.951Z,5.70
2019-02-21T02:20:00.744Z,5.70
2019-02-21T02:22:41.991Z,5.70
2019-02-21T02:25:22.824Z,5.70
2019-02-21T02:28:03.644Z,5.60
2019-02-21T02:30:44.584Z,5.60
2019-02-21T02:36:08.440Z,5.60
2019-02-21T02:38:37.577Z,5.60
2019-02-21T02:41:25.812Z,5.60
2019-02-21T02:44:14.212Z,5.60
2019-02-21T02:46:43.733Z,5.50
2019-02-21T02:49:31.959Z,5.50
2019-02-21T02:52:01.494Z,5.40
2019-02-21T02:54:30.629Z,5.40
2019-02-21T02:56:59.933Z,5.70
2019-02-21T02:59:48.189Z,5.80
2019-02-21T03:02:36.387Z,5.70
2019-02-21T03:05:24.792Z,5.70
2019-02-21T03:08:13.278Z,5.80
2019-02-21T03:11:02.100Z,5.80
2019-02-21T03:13:50.310Z,5.80
2019-02-21T03:16:38.823Z,5.80
2019-02-21T03:19:07.954Z,5.90
2019-02-21T03:21:56.195Z,5.80
2019-02-21T03:24:44.683Z,5.90
2019-02-21T03:27:32.928Z,5.90
2019-02-21T03:30:21.239Z,5.80
2019-02-21T03:33:09.543Z,5.80
2019-02-21T03:35:38.781Z,5.80
2019-02-21T03:38:27.454Z,5.80
2019-02-21T03:41:15.716Z,5.80
2019-02-21T03:43:45.106Z,5.90
2019-02-21T03:46:33.688Z,5.90
2019-02-21T03:49:21.916Z,5.80
2019-02-21T03:52:10.146Z,5.80
2019-02-21T03:54:58.347Z,5.80
2019-02-21T03:57:27.552Z,5.80
2019-02-21T04:00:15.751Z,5.70
2019-02-21T04:03:04.708Z,5.60
2019-02-21T04:05:52.935Z,5.50
2019-02-21T04:08:41.424Z,5.50
2019-02-21T04:11:29.663Z,5.40
2019-02-21T04:17:26.848Z,5.30
2019-02-21T04:19:56.297Z,5.30
2019-02-21T04:22:44.528Z,5.20
2019-02-21T04:25:32.739Z,5.30
2019-02-21T04:28:20.961Z,5.30
2019-02-21T04:31:09.480Z,5.20
2019-02-21T04:33:57.690Z,5.20
2019-02-21T04:36:46.165Z,5.10
2019-02-21T04:39:34.369Z,5.00
2019-02-21T04:42:23.130Z,5.00
2019-02-21T04:45:11.340Z,5.10
2019-02-21T04:47:59.576Z,5.00
2019-02-21T04:50:47.792Z,4.90
2019-02-21T04:53:36.015Z,5.00
2019-02-21T04:56:17.799Z,5.00
2019-02-21T04:58:58.624Z,5.10
2019-02-21T05:01:40.380Z,5.10
2019-02-21T05:04:21.280Z,5.10
2019-02-21T05:07:02.666Z,5.10
2019-02-21T05:09:31.819Z,5.10
2019-02-21T05:12:20.321Z,5.00
2019-02-21T05:15:08.603Z,4.90
2019-02-21T05:17:57.158Z,5.00
2019-02-21T05:20:45.441Z,5.00
2019-02-21T05:23:36.596Z,5.10
2019-02-21T05:29:11.519Z,5.10
2019-02-21T05:32:18.809Z,5.10
2019-02-21T05:35:26.280Z,5.10
2019-02-21T05:38:25.260Z,5.10
2019-02-21T05:41:32.794Z,5.10
2019-02-21T05:44:29.719Z,5.10
2019-02-21T05:47:36.968Z,5.20
2019-02-21T05:50:44.220Z,5.30
2019-02-21T05:53:51.499Z,5.20
2019-02-21T05:56:59.077Z,5.30
2019-02-21T06:00:06.308Z,5.20
2019-02-21T06:03:13.890Z,5.30
2019-02-21T06:06:11.526Z,5.40
2019-02-21T06:09:18.781Z,5.50
2019-02-21T06:12:33.742Z,5.60
2019-02-21T06:15:23.457Z,5.60
2019-02-21T06:18:19.425Z,5.60
2019-02-21T06:21:07.577Z,5.70
2019-02-21T06:23:44.522Z,5.70
2019-02-21T06:26:51.763Z,5.60
2019-02-21T06:29:45.264Z,5.60
2019-02-21T06:32:33.520Z,5.60
2019-02-21T06:35:22.056Z,5.50
2019-02-21T06:38:10.290Z,5.40
2019-02-21T06:40:58.750Z,5.50
2019-02-21T06:43:47.058Z,5.50
2019-02-21T06:46:35.544Z,5.50
2019-02-21T06:49:32.167Z,5.50
2019-02-21T06:52:15.584Z,5.50
2019-02-21T06:55:03.923Z,5.40
2019-02-21T06:57:52.251Z,5.40
2019-02-21T07:00:40.799Z,5.40
2019-02-21T07:03:21.704Z,5.30
2019-02-21T07:08:45.218Z,5.30
2019-02-21T07:11:26.187Z,5.40
2019-02-21T07:14:07.326Z,5.40
2019-02-21T07:19:31.197Z,5.40
2019-02-21T07:22:17.702Z,5.50
2019-02-21T07:24:59.022Z,5.50
2019-02-21T07:27:39.632Z,5.40
2019-02-21T07:30:23.039Z,5.50
2019-02-21T07:33:03.051Z,5.40
2019-02-21T07:35:43.931Z,5.40
2019-02-21T07:38:24.927Z,5.50
2019-02-21T07:41:05.853Z,5.50
2019-02-21T07:43:47.200Z,5.60
2019-02-21T07:46:16.351Z,5.70
2019-02-21T07:48:57.967Z,5.80
2019-02-21T07:51:41.401Z,5.90
2019-02-21T07:54:22.238Z,5.90
2019-02-21T07:57:03.300Z,6.10
2019-02-21T07:59:44.258Z,6.30
2019-02-21T08:02:25.107Z,6.30
2019-02-21T08:05:05.603Z,6.60
2019-02-21T08:07:49.645Z,6.70
2019-02-21T08:10:33.566Z,6.60
2019-02-21T08:13:12.833Z,6.60
2019-02-21T08:15:53.952Z,6.80
2019-02-21T08:18:34.699Z,7.00
2019-02-21T08:23:59.239Z,6.80
2019-02-21T08:26:40.518Z,6.80
2019-02-21T08:29:21.312Z,6.90
2019-02-21T08:32:01.884Z,6.80
2019-02-21T08:34:48.051Z,6.80
2019-02-21T08:40:11.620Z,6.90
2019-02-21T08:45:35.768Z,6.70
2019-02-21T08:48:16.905Z,6.70
2019-02-21T08:50:57.820Z,6.90
2019-02-21T08:53:38.277Z,6.80
2019-02-21T08:56:19.157Z,6.70
2019-02-21T08:58:59.998Z,6.70
2019-02-21T09:01:40.461Z,6.80
2019-02-21T09:04:27.323Z,6.80
2019-02-21T09:07:04.297Z,7.00
2019-02-21T09:09:45.495Z,7.10
2019-02-21T09:12:26.859Z,7.20
2019-02-21T09:14:59.032Z,7.20
2019-02-21T09:17:47.274Z,7.30
2019-02-21T09:20:35.787Z,7.10
2019-02-21T09:23:24.272Z,7.00
2019-02-21T09:26:12.783Z,7.20
2019-02-21T09:29:01.307Z,7.20
2019-02-21T09:31:49.824Z,7.30
2019-02-21T09:34:38.046Z,7.30
2019-02-21T09:37:26.249Z,7.30
2019-02-21T09:40:14.480Z,7.50
2019-02-21T09:43:03.020Z,7.80
2019-02-21T09:45:32.868Z,8.00
2019-02-21T09:48:03.230Z,8.10
2019-02-21T09:50:44.016Z,8.10
2019-02-21T09:53:25.243Z,8.20
2019-02-21T09:56:06.757Z,8.30
2019-02-21T09:58:47.638Z,8.30
2019-02-21T10:01:28.499Z,8.30
2019-02-21T10:06:52.190Z,8.20
2019-02-21T10:09:32.888Z,8.10
2019-02-21T10:12:13.335Z,8.20
2019-02-21T10:14:54.056Z,8.30
2019-02-21T10:17:35.504Z,8.40
2019-02-21T10:20:15.923Z,8.60
2019-02-21T10:22:56.419Z,8.80
2019-02-21T10:25:37.688Z,8.90
2019-02-21T10:31:01.956Z,9.20
2019-02-21T10:36:25.487Z,9.30
2019-02-21T10:41:37.681Z,9.10
2019-02-21T10:44:06.799Z,9.00
2019-02-21T10:46:36.353Z,9.00
2019-02-21T10:49:05.515Z,9.00
2019-02-21T10:51:34.896Z,9.10
2019-02-21T10:54:04.013Z,9.00
2019-02-21T10:56:33.152Z,9.10
2019-02-21T10:59:02.348Z,9.10
2019-02-21T11:01:31.759Z,9.20
2019-02-21T11:04:01.115Z,9.30
2019-02-21T11:06:30.311Z,9.20
2019-02-21T11:08:59.508Z,9.30
2019-02-21T11:11:28.979Z,9.50
2019-02-21T11:13:58.644Z,9.50
2019-02-21T11:16:28.022Z,9.60
2019-02-21T11:18:57.556Z,9.70
2019-02-21T11:21:26.990Z,9.60
2019-02-21T11:23:56.200Z,9.50
2019-02-21T11:26:25.838Z,9.60
2019-02-21T11:28:55.000Z,9.80
2019-02-21T11:31:24.420Z,9.80
2019-02-21T11:33:53.552Z,9.90
2019-02-21T11:36:22.979Z,9.90
2019-02-21T11:38:52.357Z,9.90
2019-02-21T11:41:21.492Z,9.90
2019-02-21T11:43:50.858Z,10.00
2019-02-21T11:46:20.132Z,10.00
2019-02-21T11:48:49.233Z,10.00
2019-02-21T11:51:18.876Z,10.00
2019-02-21T11:53:48.295Z,9.80
2019-02-21T11:56:17.772Z,9.80
2019-02-21T11:58:47.167Z,9.90
2019-02-21T12:01:16.622Z,10.00
2019-02-21T12:03:45.767Z,10.10
2019-02-21T12:06:14.948Z,10.20
2019-02-21T12:08:44.070Z,10.30
2019-02-21T12:11:13.702Z,10.20
2019-02-21T12:13:43.107Z,10.20
2019-02-21T12:16:12.419Z,10.40
2019-02-21T12:18:41.832Z,10.50
2019-02-21T12:21:11.069Z,10.50
2019-02-21T12:23:40.559Z,10.70
2019-02-21T12:26:09.706Z,10.90
2019-02-21T12:28:38.956Z,11.10
2019-02-21T12:31:08.147Z,11.20
2019-02-21T12:33:37.374Z,11.20
2019-02-21T12:36:06.587Z,11.20
2019-02-21T12:38:35.848Z,11.00
2019-02-21T12:41:05.045Z,11.00
2019-02-21T12:43:34.268Z,11.20
2019-02-21T12:46:03.451Z,11.40
2019-02-21T12:48:32.755Z,11.50
2019-02-21T12:51:01.977Z,11.60
2019-02-21T12:53:31.635Z,11.80
2019-02-21T12:56:01.073Z,12.00
2019-02-21T12:58:30.208Z,11.90
2019-02-21T13:00:59.424Z,11.40
2019-02-21T13:03:28.630Z,11.40
2019-02-21T13:05:58.084Z,11.60
2019-02-21T13:08:27.343Z,11.90
2019-02-21T13:10:56.465Z,11.90
2019-02-21T13:13:25.600Z,11.90
2019-02-21T13:15:55.286Z,11.90
2019-02-21T13:18:24.672Z,11.90
2019-02-21T13:20:53.779Z,12.00
2019-02-21T13:23:22.933Z,11.90
2019-02-21T13:25:52.280Z,12.00
2019-02-21T13:28:21.420Z,12.00
2019-02-21T13:30:50.548Z,12.00
2019-02-21T13:33:20.017Z,11.90
2019-02-21T13:35:52.553Z,11.80
2019-02-21T13:38:20.769Z,11.70
2019-02-21T13:40:50.398Z,11.90
2019-02-21T13:43:19.805Z,12.00
2019-02-21T13:45:48.907Z,12.10
2019-02-21T13:48:18.035Z,12.20
2019-02-21T13:50:47.152Z,12.20
2019-02-21T13:53:16.299Z,12.40
2019-02-21T13:55:45.668Z,12.40
2019-02-21T13:58:15.475Z,12.50
2019-02-21T14:00:44.580Z,12.60
2019-02-21T14:03:13.803Z,12.50
2019-02-21T14:05:43.183Z,12.50
2019-02-21T14:08:12.319Z,12.50
2019-02-21T14:10:41.699Z,12.50
2019-02-21T14:13:11.883Z,12.20
2019-02-21T14:15:41.169Z,12.20
2019-02-21T14:18:10.830Z,12.40
2019-02-21T14:20:45.293Z,12.50
2019-02-21T14:23:11.094Z,12.40
2019-02-21T14:25:41.193Z,12.30
2019-02-21T14:28:10.532Z,12.30
2019-02-21T14:30:39.675Z,12.40
2019-02-21T14:33:08.887Z,12.40
2019-02-21T14:35:38.294Z,12.30
2019-02-21T14:38:07.432Z,12.10
2019-02-21T14:40:37.128Z,12.30
2019-02-21T14:43:06.337Z,12.40
2019-02-21T14:45:35.467Z,12.50
2019-02-21T14:48:04.663Z,12.60
2019-02-21T14:50:35.909Z,12.60
2019-02-21T14:53:04.893Z,12.60
2019-02-21T14:55:34.280Z,12.70
2019-02-21T14:58:03.440Z,12.70
2019-02-21T15:00:32.548Z,12.80
2019-02-21T15:03:02.093Z,12.90
2019-02-21T15:05:31.288Z,12.90
2019-02-21T15:08:00.498Z,12.90
2019-02-21T15:10:29.637Z,12.90
2019-02-21T15:12:58.743Z,12.80
2019-02-21T15:15:28.173Z,12.90
2019-02-21T15:18:06.951Z,12.80
2019-02-21T15:20:36.458Z,12.80
2019-02-21T15:22:59.011Z,12.80
2019-02-21T15:25:28.414Z,12.80
2019-02-21T15:27:57.786Z,12.60
2019-02-21T15:30:27.473Z,12.60
2019-02-21T15:32:56.643Z,12.70
2019-02-21T15:35:26.056Z,12.80
2019-02-21T15:37:55.478Z,12.70
2019-02-21T15:40:24.638Z,12.70
2019-02-21T15:42:53.833Z,12.70
2019-02-21T15:45:24.364Z,12.60
2019-02-21T15:47:53.737Z,12.60
2019-02-21T15:50:23.234Z,12.60
2019-02-21T15:52:52.420Z,12.60
2019-02-21T15:55:21.901Z,12.60
2019-02-21T15:58:00.561Z,12.60
2019-02-21T16:00:22.221Z,12.50
2019-02-21T16:02:51.333Z,12.40
2019-02-21T16:05:20.784Z,12.40
2019-02-21T16:07:49.905Z,12.40
2019-02-21T16:10:20.797Z,12.40
2019-02-21T16:12:50.726Z,12.40
2019-02-21T16:15:20.392Z,12.30
2019-02-21T16:17:49.815Z,12.30
2019-02-21T16:20:19.006Z,12.30
2019-02-21T16:22:48.135Z,12.30
2019-02-21T16:25:19.285Z,12.30
2019-02-21T16:27:48.387Z,12.30
2019-02-21T16:30:17.795Z,12.20
2019-02-21T16:32:46.986Z,12.30
2019-02-21T16:35:16.167Z,12.20
2019-02-21T16:37:45.366Z,12.20
2019-02-21T16:40:14.753Z,12.20
2019-02-21T16:42:43.935Z,12.10
2019-02-21T16:45:14.136Z,12.10
2019-02-21T16:47:43.583Z,12.10
2019-02-21T16:50:13.546Z,12.00
2019-02-21T16:52:42.691Z,12.00
2019-02-21T16:55:14.339Z,12.00
2019-02-21T16:57:43.447Z,12.00
2019-02-21T17:00:14.732Z,12.00
2019-02-21T17:02:43.843Z,11.90
2019-02-21T17:05:13.596Z,11.90
2019-02-21T17:07:42.757Z,11.90
2019-02-21T17:10:11.955Z,11.80
2019-02-21T17:12:41.589Z,11.80
2019-02-21T17:15:11.606Z,11.80
2019-02-21T17:17:41.048Z,11.70
2019-02-21T17:20:12.399Z,11.70
2019-02-21T17:22:41.789Z,11.70
2019-02-21T17:25:11.735Z,11.70
2019-02-21T17:27:41.536Z,11.70
2019-02-21T17:30:12.608Z,11.60
2019-02-21T17:32:41.699Z,11.60
2019-02-21T17:35:11.167Z,11.60
2019-02-21T17:37:40.652Z,11.70
2019-02-21T17:40:12.132Z,11.60
2019-02-21T17:42:41.297Z,11.60
2019-02-21T17:45:10.924Z,11.60
2019-02-21T17:47:40.037Z,11.50
2019-02-21T17:50:11.017Z,11.50
2019-02-21T17:52:40.394Z,11.40
2019-02-21T17:55:09.860Z,11.50
2019-02-21T17:57:39.903Z,11.50
2019-02-21T18:00:13.634Z,11.50
2019-02-21T18:02:43.200Z,11.50
2019-02-21T18:05:12.488Z,11.40
2019-02-21T18:07:41.920Z,11.40
2019-02-21T18:10:12.819Z,11.40
2019-02-21T18:12:41.993Z,11.40
2019-02-21T18:15:11.690Z,11.40
2019-02-21T18:17:41.060Z,11.30
2019-02-21T18:20:10.848Z,11.40
2019-02-21T18:22:39.967Z,11.40
2019-02-21T18:25:12.501Z,11.30
2019-02-21T18:27:41.656Z,11.20
2019-02-21T18:30:15.575Z,11.20
2019-02-21T18:32:44.747Z,11.30
2019-02-21T18:35:14.436Z,11.30
2019-02-21T18:37:47.557Z,11.30
2019-02-21T18:40:18.497Z,11.30
2019-02-21T18:42:47.364Z,11.20
2019-02-21T18:45:17.136Z,11.30
2019-02-21T18:47:46.355Z,11.30
2019-02-21T18:50:16.213Z,11.30
2019-02-21T18:52:45.669Z,11.30
2019-02-21T18:55:17.932Z,11.20
2019-02-21T18:57:47.382Z,11.30
2019-02-21T19:00:18.862Z,11.20
2019-02-21T19:02:48.143Z,11.30
2019-02-21T19:05:17.344Z,11.30
2019-02-21T19:07:57.856Z,11.40
2019-02-21T19:10:17.995Z,11.30
2019-02-21T19:12:47.394Z,11.30
2019-02-21T19:15:18.098Z,11.30
2019-02-21T19:17:47.241Z,11.30
2019-02-21T19:20:16.791Z,11.30
2019-02-21T19:22:46.517Z,11.20
2019-02-21T19:25:15.932Z,11.10
2019-02-21T19:27:45.663Z,11.10
2019-02-21T19:30:18.424Z,11.10
2019-02-21T19:32:47.950Z,11.00
2019-02-21T19:35:17.434Z,11.00
2019-02-21T19:37:46.836Z,11.00
2019-02-21T19:40:16.040Z,10.90
2019-02-21T19:42:46.301Z,10.90
2019-02-21T19:45:15.660Z,10.90
2019-02-21T19:47:45.819Z,11.00
2019-02-21T19:50:16.843Z,11.00
2019-02-21T19:52:45.998Z,11.00
2019-02-21T19:55:15.993Z,11.00
2019-02-21T19:57:45.744Z,11.00
2019-02-21T20:00:17.575Z,11.00
2019-02-21T20:02:46.964Z,11.00
2019-02-21T20:05:16.650Z,11.00
2019-02-21T20:07:45.852Z,11.00
2019-02-21T20:10:15.359Z,10.90
2019-02-21T20:12:44.766Z,10.90
2019-02-21T20:15:14.434Z,10.90
2019-02-21T20:17:44.540Z,10.90
2019-02-21T20:20:15.190Z,10.90
2019-02-21T20:22:44.310Z,10.90
2019-02-21T20:25:13.541Z,10.90
2019-02-21T20:27:54.566Z,10.90
2019-02-21T20:30:24.060Z,10.90
2019-02-21T20:32:53.431Z,10.90
2019-02-21T20:35:22.584Z,10.90
2019-02-21T20:37:51.807Z,11.00
2019-02-21T20:40:20.971Z,11.00
2019-02-21T20:42:52.033Z,10.90
2019-02-21T20:45:21.492Z,11.00
2019-02-21T20:47:53.343Z,10.90
2019-02-21T20:50:24.272Z,10.90
2019-02-21T20:52:53.906Z,10.90
2019-02-21T20:55:23.622Z,10.90
2019-02-21T20:57:53.191Z,10.90
2019-02-21T21:00:22.464Z,10.90
2019-02-21T21:02:51.984Z,10.80
2019-02-21T21:05:21.425Z,10.90
2019-02-21T21:07:50.713Z,10.90
2019-02-21T21:10:19.998Z,10.80
2019-02-21T21:12:50.028Z,10.90
2019-02-21T21:15:19.838Z,10.90
2019-02-21T21:17:49.090Z,10.90
2019-02-21T21:20:18.298Z,10.80
2019-02-21T21:22:47.838Z,10.80
2019-02-21T21:25:17.507Z,10.70
2019-02-21T21:27:47.186Z,10.70
2019-02-21T21:30:16.474Z,10.70
2019-02-21T21:32:45.661Z,10.80
2019-02-21T21:35:14.847Z,10.80
2019-02-21T21:37:44.000Z,10.80
2019-02-21T21:40:13.913Z,10.80
2019-02-21T21:42:43.062Z,10.80
2019-02-21T21:45:14.978Z,10.80
2019-02-21T21:47:45.040Z,10.80
2019-02-21T21:50:15.757Z,10.80
2019-02-21T21:52:45.203Z,10.80
2019-02-21T21:55:14.346Z,10.90
2019-02-21T21:57:43.734Z,10.80
2019-02-21T22:00:17.910Z,10.80
2019-02-21T22:02:47.196Z,10.80
2019-02-21T22:05:16.314Z,10.80
2019-02-21T22:07:45.811Z,10.90
2019-02-21T22:10:15.506Z,10.90
2019-02-21T22:12:52.056Z,11.00
2019-02-21T22:15:21.502Z,10.90
2019-02-21T22:17:50.633Z,10.90
2019-02-21T22:20:19.873Z,10.90
2019-02-21T22:22:50.207Z,10.90
2019-02-21T22:25:19.710Z,10.80
2019-02-21T22:27:48.885Z,10.80
2019-02-21T22:30:18.288Z,10.80
2019-02-21T22:32:47.789Z,10.80
2019-02-21T22:35:17.254Z,10.80
2019-02-21T22:37:46.673Z,10.80
2019-02-21T22:40:16.083Z,10.80
2019-02-21T22:42:45.445Z,10.80
2019-02-21T22:45:14.703Z,10.80
2019-02-21T22:47:43.993Z,10.90
2019-02-21T22:50:14.364Z,10.80
2019-02-21T22:52:43.541Z,10.80
2019-02-21T22:55:12.951Z,10.90
2019-02-21T22:57:42.322Z,10.80
2019-02-21T23:01:00.898Z,10.90
2019-02-21T23:03:43.928Z,10.90
2019-02-21T23:06:49.618Z,10.90
2019-02-21T23:09:27.515Z,10.80
2019-02-21T23:11:56.230Z,10.60
2019-02-21T23:14:25.353Z,10.50
2019-02-21T23:16:54.799Z,10.30
2019-02-21T23:19:24.315Z,10.30
2019-02-21T23:21:53.859Z,10.30
2019-02-21T23:24:22.975Z,10.30
2019-02-21T23:26:52.685Z,10.30
2019-02-21T23:29:21.797Z,10.20
2019-02-21T23:31:51.025Z,10.30
2019-02-21T23:34:27.788Z,10.30
2019-02-21T23:36:57.206Z,10.30
2019-02-21T23:39:26.326Z,10.40
2019-02-21T23:41:55.444Z,10.40
2019-02-21T23:44:24.560Z,10.40
2019-02-21T23:46:54.339Z,10.50
2019-02-21T23:49:23.509Z,10.40
2019-02-21T23:51:52.725Z,10.40
2019-02-21T23:54:21.939Z,10.40
2019-02-21T23:56:51.066Z,10.40
2019-02-21T23:59:20.205Z,10.50
